createdAt,value
2022-11-10T00:01:11.261Z,39.20
2022-11-10T00:03:39.853Z,36.00
2022-11-10T00:06:08.630Z,39.40
2022-11-10T00:08:35.487Z,39.00
2022-11-10T00:11:08.966Z,36.00
2022-11-10T00:13:56.814Z,38.20
2022-11-10T00:16:42.344Z,39.40
2022-11-10T00:19:09.650Z,39.00
2022-11-10T00:21:37.388Z,39.00
2022-11-10T00:24:04.628Z,39.80
2022-11-10T00:26:31.415Z,41.00
2022-11-10T00:28:58.246Z,36.00
2022-11-10T00:31:25.074Z,37.80
2022-11-10T00:33:52.060Z,39.00
2022-11-10T00:36:18.806Z,36.00
2022-11-10T00:38:45.648Z,39.40
2022-11-10T00:41:13.256Z,36.00
2022-11-10T00:43:40.173Z,39.40
2022-11-10T00:46:06.936Z,38.80
2022-11-10T00:48:33.729Z,39.00
2022-11-10T00:51:00.773Z,39.40
2022-11-10T00:53:27.694Z,36.40
2022-11-10T00:55:54.694Z,36.00
2022-11-10T00:58:21.575Z,41.40
2022-11-10T01:00:48.481Z,39.40
2022-11-10T01:03:17.101Z,36.00
2022-11-10T01:05:44.776Z,36.40
2022-11-10T01:08:11.615Z,36.00
2022-11-10T01:10:38.359Z,36.00
2022-11-10T01:13:05.377Z,38.20
2022-11-10T01:15:32.300Z,37.60
2022-11-10T01:17:59.332Z,38.60
2022-11-10T01:20:26.461Z,38.20
2022-11-10T01:22:53.311Z,37.00
2022-11-10T01:25:21.061Z,34.40
2022-11-10T01:27:48.030Z,34.80
2022-11-10T01:30:15.418Z,42.40
2022-11-10T01:32:42.310Z,36.00
2022-11-10T01:35:09.982Z,36.00
2022-11-10T01:37:37.336Z,34.80
2022-11-10T01:40:05.376Z,38.20
2022-11-10T01:42:54.113Z,37.80
2022-11-10T01:45:24.066Z,34.00
2022-11-10T01:47:53.057Z,39.40
2022-11-10T01:50:22.421Z,36.60
2022-11-10T01:52:52.054Z,36.00
2022-11-10T01:55:19.142Z,35.60
2022-11-10T01:57:46.453Z,34.40
2022-11-10T02:00:13.656Z,38.00
2022-11-10T02:02:52.260Z,38.20
2022-11-10T02:05:23.068Z,34.80
2022-11-10T02:07:52.136Z,37.60
2022-11-10T02:10:21.379Z,36.00
2022-11-10T02:12:50.297Z,36.80
2022-11-10T02:15:18.936Z,34.00
2022-11-10T02:17:49.621Z,37.60
2022-11-10T02:20:19.191Z,36.20
2022-11-10T02:22:46.138Z,38.80
2022-11-10T02:25:20.035Z,33.80
2022-11-10T02:27:46.941Z,34.80
2022-11-10T02:30:14.297Z,34.00
2022-11-10T02:32:41.130Z,36.00
2022-11-10T02:35:08.573Z,34.40
2022-11-10T02:37:35.569Z,39.60
2022-11-10T02:40:02.414Z,34.00
2022-11-10T02:42:29.293Z,36.00
2022-11-10T02:44:56.945Z,34.40
2022-11-10T02:47:23.943Z,36.40
2022-11-10T02:49:50.818Z,36.40
2022-11-10T02:52:17.780Z,35.20
2022-11-10T02:54:44.661Z,36.40
2022-11-10T02:57:11.656Z,36.00
2022-11-10T02:59:38.540Z,36.20
2022-11-10T03:02:05.373Z,34.00
2022-11-10T03:04:32.426Z,40.00
2022-11-10T03:06:59.450Z,36.40
2022-11-10T03:09:26.658Z,41.00
2022-11-10T03:11:53.541Z,36.00
2022-11-10T03:14:20.778Z,39.00
2022-11-10T03:16:47.669Z,36.40
2022-11-10T03:19:14.670Z,38.20
2022-11-10T03:21:41.740Z,34.00
2022-11-10T03:24:08.709Z,36.40
2022-11-10T03:26:35.693Z,37.60
2022-11-10T03:29:02.580Z,36.00
2022-11-10T03:31:29.373Z,33.60
2022-11-10T03:33:56.127Z,36.00
2022-11-10T03:36:23.027Z,36.40
2022-11-10T03:38:49.935Z,36.00
2022-11-10T03:41:19.803Z,35.80
2022-11-10T03:43:48.294Z,36.20
2022-11-10T03:46:16.182Z,37.40
2022-11-10T03:48:46.245Z,36.00
2022-11-10T03:51:15.950Z,36.20
2022-11-10T03:53:42.933Z,34.00
2022-11-10T03:56:09.984Z,35.20
2022-11-10T03:58:37.133Z,36.00
2022-11-10T04:01:04.248Z,36.00
2022-11-10T04:03:31.138Z,36.00
2022-11-10T04:06:16.618Z,36.20
2022-11-10T04:09:01.907Z,41.80
2022-11-10T04:11:50.700Z,34.40
2022-11-10T04:14:36.420Z,38.20
2022-11-10T04:17:04.054Z,33.60
2022-11-10T04:19:35.737Z,38.40
2022-11-10T04:22:02.855Z,33.00
2022-11-10T04:24:30.543Z,42.20
2022-11-10T04:26:57.606Z,36.00
2022-11-10T04:29:24.617Z,36.20
2022-11-10T04:31:51.609Z,36.00
2022-11-10T04:34:18.698Z,36.20
2022-11-10T04:36:46.178Z,36.20
2022-11-10T04:39:13.298Z,36.00
2022-11-10T04:41:40.260Z,36.00
2022-11-10T04:44:07.327Z,36.40
2022-11-10T04:46:43.376Z,35.20
2022-11-10T04:49:11.712Z,39.40
2022-11-10T04:51:44.022Z,36.40
2022-11-10T04:54:19.487Z,34.00
2022-11-10T04:59:30.263Z,34.00
2022-11-10T05:01:57.384Z,34.00
2022-11-10T05:04:36.049Z,36.00
2022-11-10T05:07:21.701Z,34.80
2022-11-10T05:09:54.902Z,36.00
2022-11-10T05:18:15.434Z,36.80
2022-11-10T05:23:43.697Z,36.00
2022-11-10T05:26:24.377Z,37.80
2022-11-10T05:29:03.531Z,34.00
2022-11-10T05:31:38.912Z,36.20
2022-11-10T05:37:31.013Z,34.00
2022-11-10T05:40:24.221Z,34.00
2022-11-10T05:42:59.937Z,36.00
2022-11-10T05:45:34.254Z,33.00
2022-11-10T05:48:05.781Z,34.00
2022-11-10T05:50:37.904Z,36.00
2022-11-10T05:53:14.139Z,35.20
2022-11-10T05:58:35.897Z,36.40
2022-11-10T06:01:24.427Z,36.00
2022-11-10T07:50:10.616Z,38.40
2022-11-10T07:53:40.869Z,36.00
2022-11-10T07:55:59.071Z,37.40
2022-11-10T08:00:59.896Z,34.00
2022-11-10T15:35:27.350Z,40.00
2022-11-10T15:41:31.574Z,42.00
2022-11-10T15:44:32.995Z,45.00
2022-11-10T15:49:53.637Z,73.20
2022-11-10T15:52:57.437Z,47.60
2022-11-10T15:55:34.438Z,52.00
2022-11-10T15:58:11.757Z,45.20
2022-11-10T16:01:00.200Z,78.80
2022-11-10T16:06:36.491Z,84.00
2022-11-10T16:18:27.812Z,63.00
2022-11-10T16:24:38.116Z,100.50
2022-11-10T16:27:20.533Z,104.33
2022-11-10T16:30:25.469Z,92.50
2022-11-10T16:33:03.533Z,87.20
2022-11-10T16:35:38.652Z,51.60
2022-11-10T16:41:19.843Z,38.80
2022-11-10T16:44:27.772Z,43.40
2022-11-10T16:49:56.521Z,37.80
2022-11-10T16:52:33.918Z,42.00
2022-11-10T16:55:36.293Z,43.00
2022-11-10T16:58:06.160Z,48.40
2022-11-10T17:00:41.041Z,37.00
2022-11-10T17:03:31.732Z,40.20
2022-11-10T17:06:15.293Z,39.00
2022-11-10T17:08:48.956Z,44.60
2022-11-10T17:14:04.876Z,41.00
2022-11-10T17:16:41.391Z,42.00
2022-11-10T17:19:23.052Z,41.40
2022-11-10T17:22:03.198Z,42.00
2022-11-10T17:24:42.719Z,45.00
2022-11-10T17:27:27.591Z,40.00
2022-11-10T17:33:03.476Z,42.00
2022-11-10T17:35:30.372Z,42.00
2022-11-10T17:38:04.964Z,44.40
2022-11-10T17:40:36.035Z,43.00
2022-11-10T17:43:08.262Z,39.00
2022-11-10T17:45:37.722Z,41.20
2022-11-10T17:48:08.550Z,39.60
2022-11-10T17:50:42.640Z,40.00
2022-11-10T17:53:31.510Z,39.20
2022-11-10T17:56:14.282Z,42.00
2022-11-10T17:58:50.282Z,41.60
2022-11-10T18:01:24.298Z,41.60
2022-11-10T18:03:51.931Z,40.00
2022-11-10T18:06:22.038Z,41.40
2022-11-10T18:08:54.212Z,40.00
2022-11-10T18:11:26.919Z,40.00
2022-11-10T18:13:59.471Z,42.00
2022-11-10T18:16:27.413Z,41.20
2022-11-10T18:19:05.935Z,39.60
2022-11-10T18:21:40.803Z,43.60
2022-11-10T18:24:27.772Z,39.80
2022-11-10T18:27:01.070Z,41.20
2022-11-10T18:29:33.799Z,39.40
2022-11-10T18:32:09.367Z,37.80
2022-11-10T18:34:46.409Z,37.80
2022-11-10T18:37:20.201Z,37.40
2022-11-10T18:39:53.001Z,36.00
2022-11-10T18:42:30.569Z,37.40
2022-11-10T18:45:10.680Z,39.60
2022-11-10T18:47:44.421Z,38.60
2022-11-10T18:50:21.044Z,39.00
2022-11-10T18:53:10.692Z,40.00
2022-11-10T18:55:45.419Z,40.00
2022-11-10T18:58:12.934Z,42.00
2022-11-10T19:00:45.368Z,39.00
2022-11-10T19:03:35.908Z,40.60
2022-11-10T19:06:22.187Z,36.60
2022-11-10T19:08:55.635Z,39.40
2022-11-10T19:11:31.922Z,39.00
2022-11-10T19:14:08.481Z,39.00
2022-11-10T19:16:57.387Z,39.80
2022-11-10T19:19:31.329Z,39.60
2022-11-10T19:22:05.073Z,37.80
2022-11-10T19:24:42.260Z,37.60
2022-11-10T19:27:20.688Z,41.80
2022-11-10T19:29:53.472Z,41.20
2022-11-10T19:32:28.006Z,39.40
2022-11-10T19:35:31.518Z,39.20
2022-11-10T19:38:04.280Z,40.80
2022-11-10T19:40:33.705Z,37.00
2022-11-10T19:43:04.329Z,41.20
2022-11-10T19:45:45.050Z,40.00
2022-11-10T19:48:20.346Z,39.80
2022-11-10T19:51:03.351Z,46.20
2022-11-10T19:54:00.489Z,39.00
2022-11-10T19:56:56.848Z,47.20
2022-11-10T19:59:32.964Z,39.20
2022-11-10T20:02:05.954Z,43.60
2022-11-10T20:04:35.504Z,44.00
2022-11-10T20:07:21.313Z,39.00
2022-11-10T20:10:25.155Z,39.00
2022-11-10T20:13:04.831Z,35.60
2022-11-10T20:18:27.249Z,37.40
2022-11-10T20:21:21.275Z,40.00
2022-11-10T20:23:56.712Z,39.20
2022-11-10T20:26:44.397Z,38.20
2022-11-10T20:29:28.034Z,42.00
2022-11-10T20:32:07.825Z,42.40
2022-11-10T20:34:52.847Z,39.40
2022-11-10T20:40:43.990Z,39.00
2022-11-10T20:49:25.865Z,44.60
2022-11-10T20:51:57.129Z,39.00
2022-11-10T20:54:53.120Z,39.40
2022-11-10T20:57:28.949Z,41.20
2022-11-10T21:00:01.881Z,39.20
2022-11-10T21:02:50.066Z,40.00
2022-11-10T21:05:46.123Z,39.40
2022-11-10T21:08:35.110Z,42.80
2022-11-10T21:11:46.558Z,39.00
2022-11-10T21:15:07.592Z,37.80
2022-11-10T21:17:49.891Z,37.60
2022-11-10T21:20:29.848Z,37.80
2022-11-10T21:23:08.472Z,37.80
2022-11-10T21:29:01.591Z,41.40
2022-11-10T21:31:43.631Z,36.40
2022-11-10T21:34:27.829Z,38.20
2022-11-10T21:37:14.753Z,39.00
2022-11-10T21:40:02.902Z,34.80
2022-11-10T21:45:26.967Z,37.00
2022-11-10T21:48:04.524Z,33.60
2022-11-10T21:50:33.350Z,37.80
2022-11-10T21:53:26.269Z,39.00
2022-11-10T21:57:04.510Z,37.40
2022-11-10T21:59:33.927Z,39.60
2022-11-10T22:02:07.279Z,38.00
2022-11-10T22:04:47.674Z,41.00
2022-11-10T22:07:27.567Z,41.00
2022-11-10T22:10:23.447Z,37.00
2022-11-10T22:13:17.875Z,34.80
2022-11-10T22:16:13.702Z,37.80
2022-11-10T22:18:41.997Z,34.00
2022-11-10T22:21:34.785Z,35.20
2022-11-10T22:27:32.434Z,38.40
2022-11-10T22:29:59.846Z,37.40
2022-11-10T22:32:44.230Z,39.40
2022-11-10T22:35:48.645Z,36.60
2022-11-10T22:38:42.622Z,36.80
2022-11-10T22:41:45.761Z,36.20
2022-11-10T22:44:43.595Z,33.20
2022-11-10T22:47:26.508Z,38.40
2022-11-10T22:50:08.283Z,36.20
2022-11-10T22:52:43.795Z,38.80
2022-11-10T22:55:34.908Z,36.80
2022-11-10T23:00:53.245Z,41.60
2022-11-10T23:03:26.224Z,36.20
2022-11-10T23:06:04.602Z,36.00
2022-11-10T23:08:47.406Z,34.00
2022-11-10T23:11:22.427Z,34.00
2022-11-10T23:13:55.325Z,34.80
2022-11-10T23:16:44.043Z,39.00
2022-11-10T23:19:33.551Z,34.00
2022-11-10T23:23:40.697Z,36.00
2022-11-10T23:24:58.465Z,36.20
2022-11-10T23:27:27.779Z,36.00
2022-11-10T23:30:00.223Z,35.60
2022-11-10T23:32:27.616Z,35.20
2022-11-10T23:35:14.192Z,34.40
2022-11-10T23:37:51.770Z,34.00
2022-11-10T23:40:51.183Z,34.40
2022-11-10T23:43:31.893Z,36.00
2022-11-10T23:46:15.590Z,34.00
2022-11-10T23:48:45.935Z,34.00
2022-11-10T23:54:37.070Z,34.40
